Time;durP1;ratioP1;P1;durP2;ratioP2;P2;SDS_P1;SDS_P2;PMS_P1;PMS_P2;Temp;Humidity;BMP_temperature;BMP_pressure;BME280_temperature;BME280_humidity;BME280_pressure;Samples;Min_cycle;Max_cycle;Signal;HPM_P1;HPM_P2
2021/06/24 00:02:03;;;;;;;7.82;4.78;;;;;;;16.13;100.00;98934.81;4989309;28;20155;-70
2021/06/24 00:04:31;;;;;;;10.43;5.00;;;;;;;16.15;100.00;98937.31;4988944;28;20034;-69
2021/06/24 00:06:57;;;;;;;8.20;4.85;;;;;;;16.08;100.00;98942.88;4986679;28;20079;-70
2021/06/24 00:09:22;;;;;;;6.07;3.75;;;;;;;16.12;100.00;98948.72;4989219;28;20038;-69
2021/06/24 00:11:47;;;;;;;6.47;3.60;;;;;;;15.95;100.00;98921.25;4989146;28;20040;-70
2021/06/24 00:14:13;;;;;;;10.80;3.92;;;;;;;16.04;100.00;98936.25;4988389;28;20084;-70
2021/06/24 00:16:38;;;;;;;6.05;3.78;;;;;;;15.90;100.00;98924.72;4977053;28;20023;-70
2021/06/24 00:19:03;;;;;;;5.97;4.18;;;;;;;16.08;100.00;98948.34;4969837;28;20370;-69
2021/06/24 00:21:29;;;;;;;4.57;3.50;;;;;;;16.10;100.00;98948.94;4970047;28;20481;-69
2021/06/24 00:23:54;;;;;;;7.60;3.45;;;;;;;16.04;100.00;98954.53;4974473;28;20038;-69
2021/06/24 00:26:20;;;;;;;6.07;3.85;;;;;;;16.04;100.00;98962.72;4987171;28;20034;-69
2021/06/24 00:28:45;;;;;;;6.60;3.20;;;;;;;15.98;100.00;98954.38;4988997;28;20105;-70
2021/06/24 00:31:10;;;;;;;3.33;2.40;;;;;;;16.05;100.00;98969.81;4988462;28;20041;-70
2021/06/24 00:33:36;;;;;;;4.20;2.53;;;;;;;15.94;100.00;98952.34;4997492;28;20101;-69
2021/06/24 00:36:01;;;;;;;6.18;2.28;;;;;;;15.89;100.00;98955.78;5001081;28;20138;-70
2021/06/24 00:38:27;;;;;;;4.72;2.83;;;;;;;16.03;100.00;98980.13;4987137;28;20038;-69
2021/06/24 00:40:52;;;;;;;5.57;2.80;;;;;;;15.93;100.00;98956.16;4988534;28;20480;-70
2021/06/24 00:43:23;;;;;;;5.18;3.00;;;;;;;15.83;100.00;98964.91;4988822;28;20034;-69
2021/06/24 00:45:48;;;;;;;5.60;3.33;;;;;;;16.02;100.00;98976.56;4986811;28;20031;-69
2021/06/24 00:48:14;;;;;;;6.53;3.00;;;;;;;16.00;100.00;98968.59;4988320;28;20018;-69
2021/06/24 00:50:44;;;;;;;4.35;3.00;;;;;;;16.12;100.00;98967.81;4988055;28;20026;-69
2021/06/24 00:53:10;;;;;;;4.43;2.53;;;;;;;16.12;100.00;98960.47;4968698;28;20031;-66
2021/06/24 00:55:41;;;;;;;6.25;2.40;;;;;;;16.13;100.00;98964.00;4987341;28;20064;-69
2021/06/24 00:58:08;;;;;;;3.20;2.58;;;;;;;16.03;100.00;98966.47;4984147;28;20023;-70
2021/06/24 01:00:35;;;;;;;3.88;2.47;;;;;;;15.78;100.00;98937.50;4985829;28;20038;-69
2021/06/24 01:03:00;;;;;;;4.03;2.40;;;;;;;16.00;100.00;98974.06;4987771;28;20030;-69
2021/06/24 01:05:26;;;;;;;5.35;3.10;;;;;;;15.88;100.00;98965.03;4987207;28;20033;-69
2021/06/24 01:07:51;;;;;;;6.95;2.90;;;;;;;16.04;100.00;98976.34;4991900;28;20022;-69
2021/06/24 01:10:17;;;;;;;5.55;2.60;;;;;;;15.98;100.00;98964.44;4991883;28;20034;-69
2021/06/24 01:12:42;;;;;;;3.30;1.45;;;;;;;15.84;100.00;98971.19;4991476;28;20069;-69
2021/06/24 01:15:08;;;;;;;3.10;2.10;;;;;;;15.73;100.00;98967.38;4991704;28;20046;-69
2021/06/24 01:17:33;;;;;;;3.70;2.33;;;;;;;15.74;100.00;98958.13;4991522;28;20037;-69
2021/06/24 01:19:58;;;;;;;3.70;2.20;;;;;;;15.82;100.00;98970.59;4991609;28;20053;-70
2021/06/24 01:22:24;;;;;;;3.50;2.17;;;;;;;15.61;100.00;98933.75;4992305;28;20030;-69
2021/06/24 01:24:49;;;;;;;2.78;1.77;;;;;;;15.77;100.00;98968.56;4990257;28;20062;-70
2021/06/24 01:27:15;;;;;;;3.10;1.95;;;;;;;15.83;100.00;98978.56;4991540;28;20476;-69
2021/06/24 01:29:40;;;;;;;5.95;2.13;;;;;;;15.83;100.00;98992.19;4990332;28;20038;-69
2021/06/24 01:32:06;;;;;;;4.57;2.20;;;;;;;15.78;100.00;98983.88;4991380;28;20068;-69
2021/06/24 01:34:31;;;;;;;5.20;2.63;;;;;;;15.82;100.00;98971.41;4992641;28;20030;-69
2021/06/24 01:36:56;;;;;;;7.22;2.47;;;;;;;15.76;100.00;98967.72;4990682;28;20034;-69
2021/06/24 01:39:22;;;;;;;5.55;2.17;;;;;;;15.76;100.00;98972.34;4990918;28;20097;-69
2021/06/24 01:41:58;;;;;;;3.33;2.30;;;;;;;15.68;100.00;98959.84;4991294;28;20052;-69
2021/06/24 01:44:32;;;;;;;3.15;1.95;;;;;;;15.60;100.00;98956.63;4989291;28;20080;-69
2021/06/24 01:46:57;;;;;;;3.72;2.50;;;;;;;15.72;100.00;98957.53;4990769;28;20030;-69
2021/06/24 01:49:22;;;;;;;4.65;2.45;;;;;;;15.73;100.00;98959.19;4991589;28;20040;-69
2021/06/24 01:51:48;;;;;;;3.70;2.55;;;;;;;15.75;100.00;98949.72;4991578;28;20041;-69
2021/06/24 01:54:17;;;;;;;5.00;2.40;;;;;;;15.80;100.00;98943.56;4991204;28;20485;-69
2021/06/24 01:56:42;;;;;;;5.55;2.50;;;;;;;15.91;100.00;98947.38;4990247;28;20511;-69
2021/06/24 01:59:07;;;;;;;5.25;2.65;;;;;;;15.95;100.00;98943.09;4990908;28;20046;-68
2021/06/24 02:01:33;;;;;;;4.38;2.40;;;;;;;15.83;100.00;98921.25;4990708;28;20161;-69
2021/06/24 02:03:58;;;;;;;4.78;2.78;;;;;;;15.86;100.00;98933.59;4990149;28;20399;-69
2021/06/24 02:06:23;;;;;;;5.55;3.10;;;;;;;15.86;100.00;98928.97;4990399;28;20030;-69
2021/06/24 02:08:48;;;;;;;4.00;2.75;;;;;;;15.85;100.00;98924.59;4980926;28;20480;-69
2021/06/24 02:11:14;;;;;;;6.53;3.20;;;;;;;15.89;100.00;98919.50;4987880;28;20045;-68
2021/06/24 02:13:39;;;;;;;6.82;2.97;;;;;;;15.78;100.00;98918.41;4989692;28;20026;-69
2021/06/24 02:16:05;;;;;;;4.22;2.58;;;;;;;15.72;100.00;98906.53;4990086;28;20034;-67
2021/06/24 02:18:30;;;;;;;5.45;3.05;;;;;;;15.51;100.00;98887.94;4990231;28;20429;-67
2021/06/24 02:20:55;;;;;;;6.00;3.38;;;;;;;15.84;100.00;98909.28;4991217;28;20050;-67
2021/06/24 02:23:21;;;;;;;3.17;2.33;;;;;;;15.84;100.00;98903.00;4990159;28;20042;-67
2021/06/24 02:25:46;;;;;;;4.53;2.78;;;;;;;15.81;100.00;98908.91;4990445;28;20038;-69
2021/06/24 02:28:11;;;;;;;3.75;2.58;;;;;;;15.83;100.00;98909.53;4991109;28;20027;-69
2021/06/24 02:30:37;;;;;;;4.15;2.92;;;;;;;15.69;100.00;98897.97;4991485;28;20488;-70
2021/06/24 02:33:05;;;;;;;4.47;3.05;;;;;;;15.71;100.00;98895.84;4989363;28;20030;-69
2021/06/24 02:35:33;;;;;;;6.90;3.28;;;;;;;15.60;100.00;98893.91;4984256;28;20045;-69
2021/06/24 02:37:58;;;;;;;7.40;3.92;;;;;;;15.63;100.00;98896.16;4990186;28;20065;-69
2021/06/24 02:40:23;;;;;;;7.82;3.60;;;;;;;15.64;100.00;98897.81;4990317;28;20472;-69
2021/06/24 02:42:49;;;;;;;7.28;3.40;;;;;;;15.51;100.00;98863.41;4990615;28;20085;-69
2021/06/24 02:45:15;;;;;;;4.63;3.30;;;;;;;15.68;100.00;98888.09;4990339;28;20129;-69
2021/06/24 02:47:40;;;;;;;5.68;3.63;;;;;;;15.63;100.00;98891.53;4989457;28;20030;-70
2021/06/24 02:50:08;;;;;;;4.90;3.42;;;;;;;15.63;100.00;98896.16;4990400;28;20036;-70
2021/06/24 02:52:33;;;;;;;5.05;3.50;;;;;;;15.68;100.00;98893.56;4990443;28;20498;-69
2021/06/24 02:54:59;;;;;;;6.28;3.95;;;;;;;15.66;100.00;98884.78;4990683;28;20114;-69
2021/06/24 02:57:24;;;;;;;5.78;3.83;;;;;;;15.63;100.00;98880.63;4989709;28;20492;-70
2021/06/24 02:59:49;;;;;;;8.15;3.85;;;;;;;15.62;100.00;98889.88;4989858;28;20029;-69
2021/06/24 03:02:15;;;;;;;8.65;4.50;;;;;;;15.50;100.00;98859.84;4989026;28;20022;-69
2021/06/24 03:04:41;;;;;;;8.82;4.78;;;;;;;15.66;100.00;98876.59;4988246;28;20547;-69
2021/06/24 03:07:06;;;;;;;7.47;4.93;;;;;;;15.64;100.00;98873.25;4988483;28;20428;-67
2021/06/24 03:09:32;;;;;;;10.02;4.90;;;;;;;15.64;100.00;98870.53;4988065;28;20037;-67
2021/06/24 03:11:57;;;;;;;8.82;4.53;;;;;;;15.57;100.00;98846.94;4990842;28;20097;-67
2021/06/24 03:14:22;;;;;;;10.70;4.68;;;;;;;15.68;100.00;98861.66;4990249;28;20805;-67
2021/06/24 03:16:48;;;;;;;6.82;4.18;;;;;;;15.69;100.00;98867.97;4989602;28;20034;-67
2021/06/24 03:19:13;;;;;;;7.20;4.18;;;;;;;15.55;100.00;98854.53;4990879;28;20038;-67
2021/06/24 03:21:39;;;;;;;7.10;4.20;;;;;;;15.65;100.00;98855.84;4990694;28;20026;-67
2021/06/24 03:24:05;;;;;;;6.03;4.25;;;;;;;15.57;100.00;98836.03;4983665;28;20030;-67
2021/06/24 03:26:31;;;;;;;6.95;4.25;;;;;;;15.73;100.00;98855.53;4983207;28;20033;-67
2021/06/24 03:28:56;;;;;;;8.57;4.25;;;;;;;15.65;100.00;98848.50;4989858;28;20030;-66
2021/06/24 03:31:22;;;;;;;7.50;4.18;;;;;;;15.59;100.00;98834.97;4990102;28;20600;-67
2021/06/24 03:33:47;;;;;;;6.47;4.03;;;;;;;15.42;100.00;98818.47;4989711;28;20113;-67
2021/06/24 03:36:12;;;;;;;7.97;4.53;;;;;;;15.45;100.00;98813.38;4990614;28;20129;-66
2021/06/24 03:38:38;;;;;;;6.57;4.18;;;;;;;15.60;100.00;98826.56;4990354;28;20821;-66
2021/06/24 03:41:04;;;;;;;6.10;4.03;;;;;;;15.61;100.00;98843.75;4989819;28;20080;-66
2021/06/24 03:43:29;;;;;;;8.25;4.63;;;;;;;15.46;100.00;98820.50;4988945;28;20063;-69
2021/06/24 03:45:55;;;;;;;8.55;4.57;;;;;;;15.59;100.00;98849.44;4990385;28;20054;-69
2021/06/24 03:48:20;;;;;;;8.65;5.00;;;;;;;15.52;100.00;98846.81;4990517;28;20097;-68
2021/06/24 03:50:45;;;;;;;9.50;5.05;;;;;;;15.66;100.00;98836.50;4988950;28;20496;-68
2021/06/24 03:53:11;;;;;;;11.82;5.95;;;;;;;15.71;100.00;98849.47;4986150;28;20076;-70
2021/06/24 03:55:46;;;;;;;11.70;6.35;;;;;;;15.53;100.00;98817.66;4987033;28;20728;-70
2021/06/24 03:58:13;;;;;;;8.05;5.90;;;;;;;15.73;100.00;98847.34;4989765;28;20518;-71
2021/06/24 04:00:41;;;;;;;8.63;5.47;;;;;;;15.68;100.00;98861.66;4990161;28;20543;-68
2021/06/24 04:03:07;;;;;;;9.35;5.40;;;;;;;15.69;100.00;98846.16;4987168;28;20031;-70
2021/06/24 04:05:33;;;;;;;7.80;4.80;;;;;;;15.76;100.00;98850.44;4988358;28;20034;-73
2021/06/24 04:08:00;;;;;;;7.75;4.78;;;;;;;15.83;100.00;98853.06;4987847;28;20034;-70
2021/06/24 04:10:27;;;;;;;13.32;5.40;;;;;;;15.86;100.00;98851.75;4988610;28;20034;-69
2021/06/24 04:12:52;;;;;;;9.48;4.60;;;;;;;15.78;100.00;98834.66;4988166;28;20033;-72
2021/06/24 04:15:18;;;;;;;7.93;4.78;;;;;;;15.77;100.00;98845.78;4987366;28;20031;-70
2021/06/24 04:17:43;;;;;;;6.28;4.07;;;;;;;15.75;100.00;98842.50;4986625;28;20034;-69
2021/06/24 04:20:09;;;;;;;5.85;4.25;;;;;;;15.81;100.00;98849.72;4987429;28;20038;-70
2021/06/24 04:22:34;;;;;;;9.30;4.35;;;;;;;15.75;100.00;98845.22;4989577;28;20476;-69
2021/06/24 04:25:00;;;;;;;6.38;3.75;;;;;;;15.87;100.00;98854.22;4989087;28;20026;-69
2021/06/24 04:27:25;;;;;;;8.45;4.47;;;;;;;15.99;100.00;98859.72;4989024;28;20089;-69
2021/06/24 04:29:50;;;;;;;6.90;4.25;;;;;;;15.99;100.00;98837.88;4989378;28;20229;-71
2021/06/24 04:32:15;;;;;;;6.68;4.40;;;;;;;16.18;100.00;98858.50;4986320;28;20034;-69
2021/06/24 04:34:41;;;;;;;6.10;4.22;;;;;;;16.27;100.00;98860.88;4988139;28;20489;-69
2021/06/24 04:37:06;;;;;;;8.90;3.72;;;;;;;16.30;100.00;98857.69;4989252;28;20109;-70
2021/06/24 04:39:31;;;;;;;7.50;4.20;;;;;;;16.36;100.00;98849.34;4988408;28;20851;-70
2021/06/24 04:41:56;;;;;;;6.00;3.80;;;;;;;16.40;100.00;98846.94;4989967;28;20427;-70
2021/06/24 04:44:22;;;;;;;6.25;3.80;;;;;;;16.40;100.00;98831.44;4985584;28;20054;-70
2021/06/24 04:46:47;;;;;;;6.95;3.70;;;;;;;16.50;100.00;98840.88;4990562;28;21166;-70
2021/06/24 04:49:13;;;;;;;7.43;3.95;;;;;;;16.53;100.00;98844.00;4993079;28;20081;-68
2021/06/24 04:51:38;;;;;;;6.40;4.03;;;;;;;16.56;100.00;98848.97;4992829;28;20030;-68
2021/06/24 04:54:03;;;;;;;6.00;3.80;;;;;;;16.57;100.00;98844.31;4992316;28;20038;-69
2021/06/24 04:56:29;;;;;;;6.85;3.88;;;;;;;16.53;100.00;98845.88;4990662;28;20040;-69
2021/06/24 04:58:54;;;;;;;11.30;4.25;;;;;;;16.46;100.00;98837.00;4992862;28;20077;-68
2021/06/24 05:01:20;;;;;;;5.43;3.70;;;;;;;16.38;100.00;98808.16;4990390;28;20030;-70
2021/06/24 05:03:45;;;;;;;7.22;4.00;;;;;;;16.55;100.00;98843.72;4990883;28;20890;-72
2021/06/24 05:06:11;;;;;;;7.43;3.97;;;;;;;16.47;100.00;98830.44;4987735;28;20030;-66
2021/06/24 05:08:37;;;;;;;4.57;3.58;;;;;;;16.57;100.00;98855.25;4991674;28;20037;-66
2021/06/24 05:11:03;;;;;;;7.60;4.00;;;;;;;16.67;100.00;98841.81;4990430;28;20030;-67
2021/06/24 05:13:28;;;;;;;7.55;3.47;;;;;;;16.66;100.00;98837.41;4986474;28;20118;-75
2021/06/24 05:15:54;;;;;;;9.05;3.50;;;;;;;16.77;100.00;98830.25;4987039;28;20045;-71
2021/06/24 05:18:19;;;;;;;6.28;3.65;;;;;;;16.99;100.00;98841.38;4994648;28;20023;-76
2021/06/24 05:20:46;;;;;;;6.63;3.78;;;;;;;17.25;100.00;98856.34;4997116;28;20044;-74
2021/06/24 05:23:16;;;;;;;6.35;3.60;;;;;;;17.15;100.00;98859.72;4992100;28;20500;-69
2021/06/24 05:25:43;;;;;;;9.93;3.80;;;;;;;17.02;100.00;98838.13;4991973;28;20594;-74
2021/06/24 05:28:09;;;;;;;7.97;4.03;;;;;;;17.00;100.00;98841.13;4992969;28;20022;-72
2021/06/24 05:30:35;;;;;;;7.85;3.75;;;;;;;17.14;100.00;98863.53;4998939;28;20022;-72
2021/06/24 05:33:00;;;;;;;7.03;4.10;;;;;;;17.22;100.00;98835.78;4991092;28;20476;-75
2021/06/24 05:35:26;;;;;;;5.65;4.13;;;;;;;17.35;99.40;98842.03;4995067;28;20030;-81
2021/06/24 05:37:51;;;;;;;7.13;3.88;;;;;;;17.46;99.41;98830.19;4996800;28;20022;-79
2021/06/24 05:40:16;;;;;;;5.45;3.97;;;;;;;17.77;97.69;98838.91;4995019;28;20431;-69
2021/06/24 05:42:42;;;;;;;4.90;4.18;;;;;;;17.96;98.61;98823.91;4991985;28;20105;-77
2021/06/24 05:45:07;;;;;;;5.43;4.32;;;;;;;18.25;95.21;98832.81;4991039;28;20776;-71
2021/06/24 05:47:33;;;;;;;4.80;3.63;;;;;;;18.84;93.80;98840.44;4990937;28;20031;-70
2021/06/24 05:49:59;;;;;;;7.32;4.47;;;;;;;18.94;91.89;98839.72;4990621;28;20504;-69
2021/06/24 05:52:25;;;;;;;9.45;4.90;;;;;;;19.19;90.19;98822.72;4990716;28;20029;-77
2021/06/24 05:54:50;;;;;;;6.50;4.40;;;;;;;19.14;88.42;98819.91;4996348;28;20026;-77
2021/06/24 05:57:15;;;;;;;6.40;4.57;;;;;;;19.21;88.98;98815.88;4991262;28;20134;-70
2021/06/24 05:59:40;;;;;;;4.68;3.50;;;;;;;19.73;86.45;98828.19;4995117;28;20030;-72
2021/06/24 06:02:06;;;;;;;5.47;3.67;;;;;;;19.95;87.14;98832.72;4990968;28;20030;-71
2021/06/24 06:04:32;;;;;;;6.25;3.40;;;;;;;19.73;86.52;98836.41;4994996;28;20152;-76
2021/06/24 06:06:57;;;;;;;5.32;3.25;;;;;;;20.08;86.48;98830.34;4995239;28;20504;-70
2021/06/24 06:09:22;;;;;;;5.75;3.13;;;;;;;19.96;85.63;98828.88;4990760;28;20030;-69
2021/06/24 06:11:48;;;;;;;4.35;2.60;;;;;;;19.60;84.86;98823.09;4990103;28;20496;-68
2021/06/24 06:14:13;;;;;;;9.55;2.60;;;;;;;19.66;86.99;98838.50;4992426;28;20105;-69
2021/06/24 06:16:39;;;;;;;8.43;3.10;;;;;;;19.79;86.77;98838.09;4988018;28;20029;-64
2021/06/24 06:19:04;;;;;;;4.15;2.92;;;;;;;19.96;87.11;98848.91;4989324;28;20070;-66
2021/06/24 06:21:31;;;;;;;4.00;2.30;;;;;;;19.99;84.93;98829.19;4991421;28;20492;-64
2021/06/24 06:23:57;;;;;;;3.22;2.60;;;;;;;19.92;83.67;98851.38;4990103;28;20034;-66
2021/06/24 06:26:24;;;;;;;4.00;2.35;;;;;;;19.38;85.54;98856.91;4989334;28;20057;-66
2021/06/24 06:28:50;;;;;;;5.10;2.35;;;;;;;19.38;85.71;98861.56;4991437;28;20105;-65
2021/06/24 06:31:16;;;;;;;4.03;2.45;;;;;;;19.48;86.05;98851.53;4994638;28;20543;-67
2021/06/24 06:33:42;;;;;;;3.80;2.47;;;;;;;19.97;85.58;98849.78;5002815;28;20026;-68
2021/06/24 06:36:07;;;;;;;2.33;1.92;;;;;;;20.27;84.16;98811.47;4991863;28;20113;-71
2021/06/24 06:38:33;;;;;;;2.40;2.00;;;;;;;20.90;81.68;98843.69;4991275;28;20030;-71
2021/06/24 06:40:58;;;;;;;2.38;1.92;;;;;;;21.18;77.57;98853.41;4992128;28;20117;-69
2021/06/24 06:43:26;;;;;;;1.92;1.73;;;;;;;21.72;75.24;98841.94;4991797;28;20038;-72
2021/06/24 06:45:51;;;;;;;2.40;1.58;;;;;;;22.11;72.04;98849.59;4987924;28;20417;-71
2021/06/24 06:48:17;;;;;;;2.00;1.65;;;;;;;22.14;68.36;98839.94;4989432;28;20022;-70
2021/06/24 06:50:43;;;;;;;2.97;1.67;;;;;;;22.00;70.61;98859.81;4988409;28;20033;-65
2021/06/24 06:53:08;;;;;;;5.30;2.45;;;;;;;21.81;72.21;98864.25;4990399;28;20546;-67
2021/06/24 06:55:35;;;;;;;29.75;15.65;;;;;;;21.64;72.88;98857.09;4989193;28;20053;-66
2021/06/24 06:58:00;;;;;;;82.88;49.35;;;;;;;21.43;74.84;98834.22;4984552;28;20037;-66
2021/06/24 07:00:28;;;;;;;12.68;7.15;;;;;;;21.66;74.11;98856.78;4984267;28;20524;-66
2021/06/24 07:02:54;;;;;;;5.25;4.15;;;;;;;21.66;72.92;98834.75;4988632;28;20026;-66
2021/06/24 07:05:20;;;;;;;4.57;2.10;;;;;;;21.62;71.25;98842.75;4983268;28;20412;-65
2021/06/24 07:07:45;;;;;;;6.05;4.18;;;;;;;21.66;71.72;98846.59;4989037;28;20084;-66
2021/06/24 07:10:11;;;;;;;4.63;4.13;;;;;;;21.76;71.47;98833.94;4990553;28;20587;-66
2021/06/24 07:12:36;;;;;;;4.85;3.05;;;;;;;22.05;71.98;98839.69;4989466;28;20030;-67
2021/06/24 07:15:03;;;;;;;5.50;4.35;;;;;;;22.16;70.39;98841.31;4998948;28;20038;-67
2021/06/24 07:17:28;;;;;;;4.95;2.85;;;;;;;22.86;68.39;98830.38;4989945;28;20045;-66
2021/06/24 07:19:54;;;;;;;3.70;1.90;;;;;;;24.48;63.36;98828.59;4988828;28;20038;-70
2021/06/24 07:22:19;;;;;;;1.88;1.65;;;;;;;23.94;62.47;98835.22;4988107;28;20030;-71
2021/06/24 07:24:44;;;;;;;1.77;1.20;;;;;;;23.37;65.55;98830.13;4988062;28;20033;-69
2021/06/24 07:27:10;;;;;;;2.83;1.35;;;;;;;23.15;67.17;98843.50;4989735;28;20034;-67
2021/06/24 07:29:35;;;;;;;2.67;1.60;;;;;;;22.94;66.80;98835.28;4989629;28;20123;-74
2021/06/24 07:32:01;;;;;;;1.40;1.10;;;;;;;24.35;64.79;98851.41;4990743;28;20026;-68
2021/06/24 07:34:26;;;;;;;5.22;4.72;;;;;;;24.58;61.65;98842.31;4990037;28;20428;-69
2021/06/24 07:36:51;;;;;;;2.78;2.22;;;;;;;24.34;61.64;98844.19;4989112;28;20447;-69
2021/06/24 07:39:17;;;;;;;2.30;2.05;;;;;;;24.38;59.89;98842.50;4989386;28;20022;-70
2021/06/24 07:41:42;;;;;;;2.70;2.50;;;;;;;23.48;61.27;98849.38;4989427;28;20033;-70
2021/06/24 07:44:08;;;;;;;5.53;2.58;;;;;;;24.38;58.58;98839.75;4988537;28;20548;-65
2021/06/24 07:46:33;;;;;;;4.20;2.70;;;;;;;26.17;55.68;98835.28;4989593;28;20088;-65
2021/06/24 07:48:59;;;;;;;2.38;2.17;;;;;;;26.27;53.17;98814.03;4989023;28;20030;-66
2021/06/24 07:51:24;;;;;;;3.13;2.40;;;;;;;26.04;51.00;98829.69;4987822;28;20407;-71
2021/06/24 07:53:50;;;;;;;2.53;2.30;;;;;;;24.56;56.57;98836.25;4988117;28;20069;-67
2021/06/24 07:56:15;;;;;;;3.67;2.63;;;;;;;23.95;57.56;98832.16;4992201;28;20025;-67
2021/06/24 07:58:41;;;;;;;3.00;2.70;;;;;;;24.81;55.54;98831.50;4996749;28;20026;-67
2021/06/24 08:01:07;;;;;;;3.25;2.45;;;;;;;27.57;49.63;98823.78;4988784;28;20046;-67
2021/06/24 08:03:34;;;;;;;3.65;2.10;;;;;;;30.29;46.44;98814.66;4987972;28;20457;-66
2021/06/24 08:05:59;;;;;;;2.45;2.13;;;;;;;29.20;45.71;98828.84;4988220;28;20114;-66
2021/06/24 08:08:25;;;;;;;3.65;2.10;;;;;;;27.85;48.65;98824.50;4987827;28;20495;-67
2021/06/24 08:10:50;;;;;;;3.30;1.98;;;;;;;26.22;51.10;98826.03;4988922;28;20049;-68
2021/06/24 08:13:16;;;;;;;3.20;2.40;;;;;;;26.11;51.88;98824.59;4990433;28;20107;-66
2021/06/24 08:15:41;;;;;;;6.00;2.50;;;;;;;25.01;53.53;98834.03;4980855;28;20516;-64
2021/06/24 08:18:07;;;;;;;3.28;2.90;;;;;;;24.92;54.79;98833.06;4989274;28;20638;-66
2021/06/24 08:20:32;;;;;;;2.45;2.10;;;;;;;25.03;53.25;98831.78;4989181;28;20104;-68
2021/06/24 08:22:57;;;;;;;2.72;2.03;;;;;;;24.52;53.82;98845.44;4994172;28;20029;-68
2021/06/24 08:25:23;;;;;;;3.05;2.25;;;;;;;24.75;53.77;98846.53;4993889;28;20018;-64
2021/06/24 08:27:51;;;;;;;2.60;2.30;;;;;;;24.47;55.78;98849.91;4994322;28;20027;-65
2021/06/24 08:30:18;;;;;;;3.47;2.35;;;;;;;23.98;57.88;98852.88;4988181;28;20544;-70
2021/06/24 08:32:44;;;;;;;3.33;3.03;;;;;;;23.80;58.02;98851.63;4993221;28;20095;-65
2021/06/24 08:35:10;;;;;;;2.92;2.60;;;;;;;23.61;58.13;98868.06;4990509;28;20480;-64
2021/06/24 08:37:37;;;;;;;3.17;2.40;;;;;;;23.53;57.38;98875.03;4997390;28;20049;-64
2021/06/24 08:40:08;;;;;;;2.88;2.47;;;;;;;24.80;55.56;98865.84;4988126;28;20033;-66
2021/06/24 08:42:34;;;;;;;2.97;2.08;;;;;;;27.72;48.66;98876.22;4985524;28;20729;-66
2021/06/24 08:45:02;;;;;;;2.25;1.75;;;;;;;28.32;44.54;98863.03;4989893;28;20561;-68
2021/06/24 08:47:29;;;;;;;1.95;1.75;;;;;;;25.92;51.56;98875.38;4988903;28;20026;-69
2021/06/24 08:49:56;;;;;;;1.70;1.60;;;;;;;25.64;51.52;98873.59;4989712;28;20084;-68
2021/06/24 08:52:22;;;;;;;2.13;1.80;;;;;;;25.08;52.46;98875.19;4988728;28;20058;-68
2021/06/24 08:54:47;;;;;;;3.45;2.00;;;;;;;24.89;53.81;98883.47;4986063;28;20598;-70
2021/06/24 08:57:14;;;;;;;2.30;2.00;;;;;;;25.26;53.25;98893.00;4990053;28;20037;-66
2021/06/24 08:59:39;;;;;;;2.97;1.70;;;;;;;24.86;53.85;98867.44;4988397;28;20078;-67
2021/06/24 09:02:07;;;;;;;2.15;1.83;;;;;;;24.23;54.95;98883.03;4987888;28;20385;-66
2021/06/24 09:04:34;;;;;;;1.60;1.45;;;;;;;27.86;47.08;98897.59;4988857;28;20519;-66
2021/06/24 09:07:08;;;;;;;1.55;1.35;;;;;;;28.53;45.18;98892.00;4989062;28;20069;-70
2021/06/24 09:09:36;;;;;;;2.42;1.60;;;;;;;29.07;44.27;98885.50;4988338;28;20030;-70
2021/06/24 09:12:07;;;;;;;2.72;1.55;;;;;;;27.11;49.15;98885.91;4993281;28;20411;-70
2021/06/24 09:14:38;;;;;;;1.73;1.48;;;;;;;28.76;47.86;98872.44;4987124;28;20050;-67
2021/06/24 09:17:03;;;;;;;4.65;1.40;;;;;;;31.35;41.52;98875.25;4986945;28;20026;-68
2021/06/24 09:19:29;;;;;;;1.30;1.20;;;;;;;33.18;38.21;98871.41;4988315;28;20034;-69
2021/06/24 09:22:03;;;;;;;2.53;1.90;;;;;;;35.66;34.66;98875.25;4985045;28;20027;-67
2021/06/24 09:24:34;;;;;;;2.53;1.48;;;;;;;36.54;32.78;98871.75;5001326;28;20042;-67
2021/06/24 09:27:02;;;;;;;3.67;1.00;;;;;;;37.76;29.62;98865.22;4986545;28;20031;-66
2021/06/24 09:29:28;;;;;;;1.10;0.90;;;;;;;35.59;31.44;98866.66;4993036;28;20489;-67
2021/06/24 09:31:56;;;;;;;4.28;1.10;;;;;;;35.52;31.51;98865.28;4990421;28;20042;-65
2021/06/24 09:34:22;;;;;;;1.63;0.88;;;;;;;35.22;33.76;98869.84;4991315;28;20695;-64
2021/06/24 09:36:53;;;;;;;2.00;1.20;;;;;;;36.21;33.15;98864.75;4988488;28;20125;-66
2021/06/24 09:39:18;;;;;;;1.40;1.30;;;;;;;36.45;31.25;98869.19;4992452;28;20097;-68
2021/06/24 09:41:56;;;;;;;1.38;1.25;;;;;;;29.68;40.63;98859.41;4992137;28;20132;-68
2021/06/24 09:44:24;;;;;;;3.35;1.00;;;;;;;33.21;36.08;98864.28;4991885;28;20030;-69
2021/06/24 09:46:49;;;;;;;1.73;1.08;;;;;;;34.58;33.93;98864.22;4989978;28;20361;-68
2021/06/24 09:49:26;;;;;;;5.00;1.10;;;;;;;36.67;31.49;98859.13;4991915;28;20106;-65
2021/06/24 09:51:53;;;;;;;0.90;0.80;;;;;;;35.19;32.76;98864.91;4989439;28;20085;-68
2021/06/24 09:54:18;;;;;;;1.38;1.00;;;;;;;32.40;36.34;98865.94;4991677;28;20454;-67
2021/06/24 09:56:51;;;;;;;1.20;1.05;;;;;;;30.24;40.22;98870.66;4991483;28;20109;-66
2021/06/24 09:59:18;;;;;;;3.28;2.97;;;;;;;29.39;42.46;98873.91;4973043;28;20031;-67
2021/06/24 10:01:48;;;;;;;1.85;1.00;;;;;;;29.23;42.96;98869.97;4990475;28;20117;-69
2021/06/24 10:04:22;;;;;;;1.20;1.10;;;;;;;27.65;45.36;98873.03;4988801;28;20026;-62
2021/06/24 10:06:49;;;;;;;1.60;1.30;;;;;;;28.23;42.57;98856.63;4978175;28;20069;-64
2021/06/24 10:09:15;;;;;;;0.75;0.75;;;;;;;28.78;42.02;98867.38;4989074;28;20451;-67
2021/06/24 10:11:41;;;;;;;1.25;0.90;;;;;;;29.56;40.32;98852.81;4990324;28;20037;-67
2021/06/24 10:14:07;;;;;;;1.95;1.00;;;;;;;30.06;40.95;98864.25;4996164;28;20034;-67
2021/06/24 10:16:32;;;;;;;0.98;0.75;;;;;;;31.09;38.56;98850.25;4990470;28;20074;-63
2021/06/24 10:19:00;;;;;;;1.42;0.85;;;;;;;31.15;37.36;98848.91;4991417;28;20038;-63
2021/06/24 10:21:27;;;;;;;1.88;1.00;;;;;;;29.18;40.26;98856.19;4990739;28;20508;-63
2021/06/24 10:24:00;;;;;;;1.02;0.82;;;;;;;29.67;39.87;98849.38;4991071;28;20034;-63
2021/06/24 10:26:27;;;;;;;1.75;0.90;;;;;;;30.02;39.92;98848.50;4988365;28;20031;-63
2021/06/24 10:29:15;;;;;;;2.17;0.93;;;;;;;30.76;38.22;98850.91;4990814;28;20164;-63
2021/06/24 10:31:52;;;;;;;2.60;1.02;;;;;;;30.36;39.79;98840.06;4972291;28;20091;-63
2021/06/24 10:34:19;;;;;;;1.25;1.00;;;;;;;31.26;37.30;98842.91;4979669;28;20034;-63
2021/06/24 10:37:11;;;;;;;2.45;1.05;;;;;;;31.23;38.09;98834.06;4990469;28;20399;-63
2021/06/24 10:39:37;;;;;;;1.20;1.10;;;;;;;30.88;37.57;98844.63;4988715;28;20058;-63
2021/06/24 10:42:04;;;;;;;3.65;1.00;;;;;;;32.07;36.26;98844.41;4989594;28;20772;-63
2021/06/24 10:44:51;;;;;;;0.77;0.77;;;;;;;31.68;37.99;98832.59;4990539;28;20127;-63
2021/06/24 10:47:34;;;;;;;1.23;0.98;;;;;;;31.12;36.50;98796.47;4990043;28;20743;-64
2021/06/24 10:52:57;;;;;;;1.13;0.90;;;;;;;30.36;39.60;98823.31;4989651;28;20040;-63
2021/06/24 10:55:35;;;;;;;1.17;1.00;;;;;;;31.44;35.93;98822.91;4987750;28;20023;-63
2021/06/24 10:58:02;;;;;;;1.23;1.10;;;;;;;32.14;36.41;98813.84;5000470;28;20065;-64
2021/06/24 11:00:43;;;;;;;1.80;0.90;;;;;;;30.99;37.23;98814.31;4990520;28;20041;-64
2021/06/24 11:03:10;;;;;;;1.35;0.95;;;;;;;30.25;37.59;98805.31;4990439;28;20030;-64
2021/06/24 11:05:44;;;;;;;1.08;0.90;;;;;;;29.40;39.12;98796.72;4990110;28;20027;-63
2021/06/24 11:08:18;;;;;;;1.67;1.20;;;;;;;28.95;41.20;98764.38;4990517;28;20496;-65
2021/06/24 11:11:02;;;;;;;2.38;1.23;;;;;;;28.63;42.46;98785.09;4981962;28;20034;-65
2021/06/24 11:16:20;;;;;;;4.97;1.38;;;;;;;27.84;43.67;98794.22;4989522;28;20041;-65
2021/06/24 11:19:14;;;;;;;2.03;1.40;;;;;;;28.32;42.73;98783.19;4990091;28;20373;-63
2021/06/24 11:21:39;;;;;;;1.48;1.17;;;;;;;30.40;39.42;98792.78;4990240;28;20026;-64
2021/06/24 11:24:05;;;;;;;1.83;1.30;;;;;;;31.17;39.21;98795.47;4986770;28;20034;-66
2021/06/24 11:26:39;;;;;;;2.53;1.60;;;;;;;30.92;37.60;98772.16;4989134;28;20277;-67
2021/06/24 11:29:49;;;;;;;1.83;1.38;;;;;;;31.49;37.03;98793.91;4989784;28;20026;-65
2021/06/24 11:32:17;;;;;;;1.85;1.38;;;;;;;30.26;38.65;98800.53;4988647;28;20045;-65
2021/06/24 11:34:57;;;;;;;2.17;1.38;;;;;;;30.39;39.13;98799.50;4986745;28;20030;-66